sensor_id;sensor_type;location;lat;lon;timestamp;pressure;altitude;pressure_sealevel;temperature;humidity
30724;BME280;17473;52.286;20.930;2024-03-23T00:52:30;99435.56;;;9.05;100.00
30724;BME280;17473;52.286;20.930;2024-03-23T00:54:56;99436.41;;;9.04;100.00
30724;BME280;17473;52.286;20.930;2024-03-23T00:57:22;99425.56;;;8.91;100.00
30724;BME280;17473;52.286;20.930;2024-03-23T00:59:48;99420.31;;;8.93;100.00
30724;BME280;17473;52.286;20.930;2024-03-23T01:02:14;99420.75;;;9.10;100.00
30724;BME280;17473;52.286;20.930;2024-03-23T01:04:40;99415.38;;;9.07;100.00
30724;BME280;17473;52.286;20.930;2024-03-23T01:07:06;99422.38;;;9.05;100.00
30724;BME280;17473;52.286;20.930;2024-03-23T01:09:33;99426.59;;;8.98;100.00
30724;BME280;17473;52.286;20.930;2024-03-23T01:11:59;99415.50;;;9.12;100.00
30724;BME280;17473;52.286;20.930;2024-03-23T01:14:25;99415.88;;;8.90;100.00
30724;BME280;17473;52.286;20.930;2024-03-23T01:16:51;99419.34;;;8.89;100.00
30724;BME280;17473;52.286;20.930;2024-03-23T01:19:17;99410.50;;;8.86;100.00
30724;BME280;17473;52.286;20.930;2024-03-23T01:21:43;99413.50;;;9.01;100.00
30724;BME280;17473;52.286;20.930;2024-03-23T01:24:09;99414.19;;;8.94;100.00
30724;BME280;17473;52.286;20.930;2024-03-23T01:26:36;99392.66;;;9.11;100.00
30724;BME280;17473;52.286;20.930;2024-03-23T01:29:03;99397.53;;;8.93;100.00
30724;BME280;17473;52.286;20.930;2024-03-23T01:31:29;99409.00;;;8.96;100.00
30724;BME280;17473;52.286;20.930;2024-03-23T01:33:55;99408.06;;;8.93;100.00
30724;BME280;17473;52.286;20.930;2024-03-23T01:36:21;99410.50;;;8.86;100.00
30724;BME280;17473;52.286;20.930;2024-03-23T01:38:47;99414.16;;;8.91;100.00
30724;BME280;17473;52.286;20.930;2024-03-23T01:41:13;99411.63;;;8.96;100.00
30724;BME280;17473;52.286;20.930;2024-03-23T01:43:39;99400.19;;;8.95;100.00
30724;BME280;17473;52.286;20.930;2024-03-23T01:46:07;99401.75;;;8.87;100.00
30724;BME280;17473;52.286;20.930;2024-03-23T01:48:33;99392.66;;;9.11;100.00
30724;BME280;17473;52.286;20.930;2024-03-23T01:50:59;99379.47;;;9.11;100.00
30724;BME280;17473;52.286;20.930;2024-03-23T01:53:25;99389.63;;;8.93;100.00
30724;BME280;17473;52.286;20.930;2024-03-23T01:55:52;99387.63;;;8.83;100.00
30724;BME280;17473;52.286;20.930;2024-03-23T01:58:18;99402.47;;;8.81;100.00
30724;BME280;17473;52.286;20.930;2024-03-23T02:00:44;99391.06;;;8.81;100.00
30724;BME280;17473;52.286;20.930;2024-03-23T02:03:27;99396.28;;;8.79;100.00
30724;BME280;17473;52.286;20.930;2024-03-23T02:05:54;99382.50;;;8.89;100.00
30724;BME280;17473;52.286;20.930;2024-03-23T02:08:23;99384.13;;;8.84;100.00
30724;BME280;17473;52.286;20.930;2024-03-23T02:10:50;99389.56;;;8.92;100.00
30724;BME280;17473;52.286;20.930;2024-03-23T02:13:18;99380.91;;;8.96;100.00
30724;BME280;17473;52.286;20.930;2024-03-23T02:15:44;99391.44;;;8.96;100.00
30724;BME280;17473;52.286;20.930;2024-03-23T02:18:11;99380.59;;;8.84;100.00
30724;BME280;17473;52.286;20.930;2024-03-23T02:20:37;99378.31;;;8.98;100.00
30724;BME280;17473;52.286;20.930;2024-03-23T02:23:14;99372.91;;;8.91;100.00
30724;BME280;17473;52.286;20.930;2024-03-23T02:25:40;99379.03;;;8.92;100.00
30724;BME280;17473;52.286;20.930;2024-03-23T02:28:07;99368.50;;;8.92;100.00
30724;BME280;17473;52.286;20.930;2024-03-23T02:30:33;99367.53;;;8.87;100.00
30724;BME280;17473;52.286;20.930;2024-03-23T02:32:59;99369.22;;;8.85;100.00
30724;BME280;17473;52.286;20.930;2024-03-23T02:35:25;99370.06;;;8.84;100.00
30724;BME280;17473;52.286;20.930;2024-03-23T02:37:51;99362.16;;;8.84;100.00
30724;BME280;17473;52.286;20.930;2024-03-23T02:40:19;99368.44;;;8.87;100.00
30724;BME280;17473;52.286;20.930;2024-03-23T02:42:46;99366.81;;;8.94;100.00
30724;BME280;17473;52.286;20.930;2024-03-23T02:45:12;99362.41;;;8.93;100.00
30724;BME280;17473;52.286;20.930;2024-03-23T02:47:38;99360.56;;;8.89;100.00
30724;BME280;17473;52.286;20.930;2024-03-23T02:50:05;99351.75;;;8.88;100.00
30724;BME280;17473;52.286;20.930;2024-03-23T02:52:31;99348.34;;;8.92;100.00
30724;BME280;17473;52.286;20.930;2024-03-23T02:54:57;99335.78;;;8.81;100.00
30724;BME280;17473;52.286;20.930;2024-03-23T02:57:23;99343.72;;;8.82;100.00
30724;BME280;17473;52.286;20.930;2024-03-23T02:59:49;99342.84;;;8.82;100.00
30724;BME280;17473;52.286;20.930;2024-03-23T03:02:16;99341.78;;;8.75;100.00
30724;BME280;17473;52.286;20.930;2024-03-23T03:04:42;99335.81;;;8.82;100.00
30724;BME280;17473;52.286;20.930;2024-03-23T03:07:08;99334.88;;;8.80;100.00
30724;BME280;17473;52.286;20.930;2024-03-23T03:09:34;99334.09;;;8.83;100.00
30724;BME280;17473;52.286;20.930;2024-03-23T03:12:02;99333.38;;;8.90;100.00
30724;BME280;17473;52.286;20.930;2024-03-23T03:14:29;99324.44;;;8.83;100.00
30724;BME280;17473;52.286;20.930;2024-03-23T03:16:55;99330.13;;;9.02;100.00
30724;BME280;17473;52.286;20.930;2024-03-23T03:19:21;99332.47;;;8.89;100.00
30724;BME280;17473;52.286;20.930;2024-03-23T03:21:47;99328.13;;;8.91;100.00
30724;BME280;17473;52.286;20.930;2024-03-23T03:24:16;99326.47;;;8.95;100.00
30724;BME280;17473;52.286;20.930;2024-03-23T03:26:43;99324.75;;;8.96;100.00
30724;BME280;17473;52.286;20.930;2024-03-23T03:29:09;99329.41;;;9.07;100.00
30724;BME280;17473;52.286;20.930;2024-03-23T03:31:35;99340.69;;;9.02;100.00
30724;BME280;17473;52.286;20.930;2024-03-23T03:34:01;99338.78;;;8.96;100.00
30724;BME280;17473;52.286;20.930;2024-03-23T03:36:28;99336.19;;;8.98;100.00
30724;BME280;17473;52.286;20.930;2024-03-23T03:38:54;99331.63;;;8.90;100.00
30724;BME280;17473;52.286;20.930;2024-03-23T03:41:20;99337.81;;;8.92;100.00
30724;BME280;17473;52.286;20.930;2024-03-23T03:43:46;99330.75;;;8.90;100.00
30724;BME280;17473;52.286;20.930;2024-03-23T03:46:13;99329.22;;;9.00;100.00
30724;BME280;17473;52.286;20.930;2024-03-23T03:48:39;99330.78;;;8.91;100.00
30724;BME280;17473;52.286;20.930;2024-03-23T03:51:05;99335.41;;;9.02;100.00
30724;BME280;17473;52.286;20.930;2024-03-23T03:53:31;99322.22;;;9.00;100.00
30724;BME280;17473;52.286;20.930;2024-03-23T03:56:01;99328.34;;;9.01;100.00
30724;BME280;17473;52.286;20.930;2024-03-23T03:58:27;99326.59;;;9.01;100.00
30724;BME280;17473;52.286;20.930;2024-03-23T04:00:54;99323.00;;;8.98;100.00
30724;BME280;17473;52.286;20.930;2024-03-23T04:03:20;99319.50;;;8.97;100.00
30724;BME280;17473;52.286;20.930;2024-03-23T04:05:54;99317.75;;;8.98;100.00
30724;BME280;17473;52.286;20.930;2024-03-23T04:08:21;99314.03;;;8.89;100.00
30724;BME280;17473;52.286;20.930;2024-03-23T04:10:47;99313.16;;;8.89;100.00
30724;BME280;17473;52.286;20.930;2024-03-23T04:13:14;99309.94;;;9.01;100.00
30724;BME280;17473;52.286;20.930;2024-03-23T04:15:40;99311.72;;;9.02;100.00
30724;BME280;17473;52.286;20.930;2024-03-23T04:18:06;99311.50;;;8.92;100.00
30724;BME280;17473;52.286;20.930;2024-03-23T04:20:32;99293.06;;;8.92;100.00
30724;BME280;17473;52.286;20.930;2024-03-23T04:22:59;99294.03;;;8.98;100.00
30724;BME280;17473;52.286;20.930;2024-03-23T04:25:25;99294.38;;;9.12;100.00
30724;BME280;17473;52.286;20.930;2024-03-23T04:27:51;99289.94;;;9.11;100.00
30724;BME280;17473;52.286;20.930;2024-03-23T04:30:18;99290.03;;;9.14;100.00
30724;BME280;17473;52.286;20.930;2024-03-23T04:32:45;99279.41;;;9.11;100.00
30724;BME280;17473;52.286;20.930;2024-03-23T04:35:11;99275.16;;;9.16;100.00
30724;BME280;17473;52.286;20.930;2024-03-23T04:37:38;99276.09;;;9.18;100.00
30724;BME280;17473;52.286;20.930;2024-03-23T04:40:07;99279.66;;;9.21;100.00
30724;BME280;17473;52.286;20.930;2024-03-23T04:42:33;99278.97;;;9.30;100.00
30724;BME280;17473;52.286;20.930;2024-03-23T04:45:00;99275.03;;;9.10;100.00
30724;BME280;17473;52.286;20.930;2024-03-23T04:47:26;99277.25;;;9.31;100.00
30724;BME280;17473;52.286;20.930;2024-03-23T04:49:52;99276.97;;;9.18;100.00
30724;BME280;17473;52.286;20.930;2024-03-23T04:52:19;99277.03;;;9.21;100.00
30724;BME280;17473;52.286;20.930;2024-03-23T04:54:45;99259.38;;;9.17;100.00
30724;BME280;17473;52.286;20.930;2024-03-23T04:57:11;99249.66;;;9.13;100.00
30724;BME280;17473;52.286;20.930;2024-03-23T04:59:37;99251.47;;;9.17;100.00
30724;BME280;17473;52.286;20.930;2024-03-23T05:02:03;99251.44;;;9.14;100.00
30724;BME280;17473;52.286;20.930;2024-03-23T05:04:29;99244.59;;;9.24;100.00
30724;BME280;17473;52.286;20.930;2024-03-23T05:06:55;99248.00;;;9.20;100.00
30724;BME280;17473;52.286;20.930;2024-03-23T05:09:22;99258.41;;;9.12;100.00
30724;BME280;17473;52.286;20.930;2024-03-23T05:11:48;99259.38;;;9.17;100.00
30724;BME280;17473;52.286;20.930;2024-03-23T05:14:14;99263.22;;;9.32;100.00
30724;BME280;17473;52.286;20.930;2024-03-23T05:16:40;99264.91;;;9.30;100.00
30724;BME280;17473;52.286;20.930;2024-03-23T05:19:06;99270.75;;;9.16;100.00
30724;BME280;17473;52.286;20.930;2024-03-23T05:21:33;99259.47;;;9.22;100.00
30724;BME280;17473;52.286;20.930;2024-03-23T05:23:59;99261.22;;;9.21;100.00
30724;BME280;17473;52.286;20.930;2024-03-23T05:26:25;99253.22;;;9.17;100.00
30724;BME280;17473;52.286;20.930;2024-03-23T05:28:51;99260.97;;;9.09;100.00
30724;BME280;17473;52.286;20.930;2024-03-23T05:31:35;99261.06;;;9.14;100.00
30724;BME280;17473;52.286;20.930;2024-03-23T05:34:01;99256.81;;;9.20;100.00
30724;BME280;17473;52.286;20.930;2024-03-23T05:36:27;99246.22;;;9.19;100.00
30724;BME280;17473;52.286;20.930;2024-03-23T05:38:53;99247.34;;;9.30;100.00
30724;BME280;17473;52.286;20.930;2024-03-23T05:41:19;99233.03;;;9.16;100.00
30724;BME280;17473;52.286;20.930;2024-03-23T05:43:46;99255.88;;;9.17;100.00
30724;BME280;17473;52.286;20.930;2024-03-23T05:46:12;99241.78;;;9.15;100.00
30724;BME280;17473;52.286;20.930;2024-03-23T05:48:38;99243.56;;;9.16;100.00
30724;BME280;17473;52.286;20.930;2024-03-23T05:51:04;99228.53;;;9.12;100.00
30724;BME280;17473;52.286;20.930;2024-03-23T05:53:30;99235.66;;;9.16;100.00
30724;BME280;17473;52.286;20.930;2024-03-23T05:56:03;99228.78;;;9.24;100.00
30724;BME280;17473;52.286;20.930;2024-03-23T05:58:30;99235.69;;;9.19;100.00
30724;BME280;17473;52.286;20.930;2024-03-23T06:01:02;99234.91;;;9.21;100.00
30724;BME280;17473;52.286;20.930;2024-03-23T06:03:29;99226.91;;;9.18;100.00
30724;BME280;17473;52.286;20.930;2024-03-23T06:05:56;99226.16;;;9.24;100.00
30724;BME280;17473;52.286;20.930;2024-03-23T06:08:22;99225.22;;;9.20;100.00
30724;BME280;17473;52.286;20.930;2024-03-23T06:10:50;99224.38;;;9.23;100.00
30724;BME280;17473;52.286;20.930;2024-03-23T06:13:16;99227.75;;;9.16;100.00
30724;BME280;17473;52.286;20.930;2024-03-23T06:15:43;99229.66;;;9.24;100.00
30724;BME280;17473;52.286;20.930;2024-03-23T06:18:11;99233.22;;;9.27;100.00
30724;BME280;17473;52.286;20.930;2024-03-23T06:20:37;99229.53;;;9.17;100.00
30724;BME280;17473;52.286;20.930;2024-03-23T06:23:04;99230.38;;;9.14;100.00
30724;BME280;17473;52.286;20.930;2024-03-23T06:25:30;99227.84;;;9.20;100.00
30724;BME280;17473;52.286;20.930;2024-03-23T06:27:56;99226.25;;;9.29;100.00
30724;BME280;17473;52.286;20.930;2024-03-23T06:30:24;99226.19;;;9.26;100.00
30724;BME280;17473;52.286;20.930;2024-03-23T06:32:50;99215.75;;;9.30;100.00
30724;BME280;17473;52.286;20.930;2024-03-23T06:35:17;99223.56;;;9.26;100.00
30724;BME280;17473;52.286;20.930;2024-03-23T06:37:43;99222.88;;;9.34;100.00
30724;BME280;17473;52.286;20.930;2024-03-23T06:40:09;99209.44;;;9.23;100.00
30724;BME280;17473;52.286;20.930;2024-03-23T06:42:36;99211.41;;;9.32;100.00
30724;BME280;17473;52.286;20.930;2024-03-23T06:45:03;99215.78;;;9.32;100.00
30724;BME280;17473;52.286;20.930;2024-03-23T06:47:30;99210.47;;;9.30;100.00
30724;BME280;17473;52.286;20.930;2024-03-23T06:49:57;99200.88;;;9.34;100.00
30724;BME280;17473;52.286;20.930;2024-03-23T06:52:23;99191.91;;;9.24;100.00
30724;BME280;17473;52.286;20.930;2024-03-23T06:54:49;99186.91;;;9.36;100.00
30724;BME280;17473;52.286;20.930;2024-03-23T06:57:15;99193.94;;;9.37;100.00
30724;BME280;17473;52.286;20.930;2024-03-23T06:59:42;99187.88;;;9.42;100.00
30724;BME280;17473;52.286;20.930;2024-03-23T07:02:09;99193.22;;;9.45;100.00
30724;BME280;17473;52.286;20.930;2024-03-23T07:04:36;99190.59;;;9.46;100.00
30724;BME280;17473;52.286;20.930;2024-03-23T07:07:02;99191.25;;;9.34;100.00
30724;BME280;17473;52.286;20.930;2024-03-23T07:09:29;99188.75;;;9.42;100.00
30724;BME280;17473;52.286;20.930;2024-03-23T07:11:58;99190.53;;;9.43;100.00
30724;BME280;17473;52.286;20.930;2024-03-23T07:14:24;99186.09;;;9.40;100.00
30724;BME280;17473;52.286;20.930;2024-03-23T07:16:51;99184.50;;;9.49;100.00
30724;BME280;17473;52.286;20.930;2024-03-23T07:19:18;99181.84;;;9.49;100.00
30724;BME280;17473;52.286;20.930;2024-03-23T07:21:47;99178.19;;;9.40;100.00
30724;BME280;17473;52.286;20.930;2024-03-23T07:24:13;99179.19;;;9.46;100.00
30724;BME280;17473;52.286;20.930;2024-03-23T07:26:40;99174.16;;;9.60;100.00
30724;BME280;17473;52.286;20.930;2024-03-23T07:29:06;99173.28;;;9.61;100.00
30724;BME280;17473;52.286;20.930;2024-03-23T07:31:33;99176.50;;;9.44;100.00
30724;BME280;17473;52.286;20.930;2024-03-23T07:33:59;99171.22;;;9.43;100.00
30724;BME280;17473;52.286;20.930;2024-03-23T07:36:25;99178.78;;;9.71;100.00
30724;BME280;17473;52.286;20.930;2024-03-23T07:38:51;99172.34;;;9.57;100.00
30724;BME280;17473;52.286;20.930;2024-03-23T07:41:21;99171.22;;;9.43;100.00
30724;BME280;17473;52.286;20.930;2024-03-23T07:43:48;99160.47;;;9.32;100.00
30724;BME280;17473;52.286;20.930;2024-03-23T07:46:15;99158.91;;;9.43;100.00
30724;BME280;17473;52.286;20.930;2024-03-23T07:48:42;99160.50;;;9.35;100.00
30724;BME280;17473;52.286;20.930;2024-03-23T07:51:10;99148.84;;;9.22;100.00
30724;BME280;17473;52.286;20.930;2024-03-23T07:53:37;99147.78;;;9.58;100.00
30724;BME280;17473;52.286;20.930;2024-03-23T07:56:08;99140.44;;;9.40;100.00
30724;BME280;17473;52.286;20.930;2024-03-23T07:58:38;99145.00;;;9.50;100.00
30724;BME280;17473;52.286;20.930;2024-03-23T08:01:10;99133.47;;;9.44;100.00
30724;BME280;17473;52.286;20.930;2024-03-23T08:03:42;99129.41;;;9.61;100.00
30724;BME280;17473;52.286;20.930;2024-03-23T08:06:12;99131.56;;;9.85;100.00
30724;BME280;17473;52.286;20.930;2024-03-23T08:08:41;99132.19;;;9.70;100.00
30724;BME280;17473;52.286;20.930;2024-03-23T08:11:07;99122.56;;;9.73;100.00
30724;BME280;17473;52.286;20.930;2024-03-23T08:13:34;99128.53;;;9.62;100.00
30724;BME280;17473;52.286;20.930;2024-03-23T08:16:02;99121.69;;;9.74;100.00
30724;BME280;17473;52.286;20.930;2024-03-23T08:18:29;99126.88;;;9.69;100.00
30724;BME280;17473;52.286;20.930;2024-03-23T08:23:34;99115.56;;;9.75;100.00
30724;BME280;17473;52.286;20.930;2024-03-23T08:26:12;99103.16;;;9.69;100.00
30724;BME280;17473;52.286;20.930;2024-03-23T08:28:39;99115.53;;;9.71;100.00
30724;BME280;17473;52.286;20.930;2024-03-23T08:31:08;99100.78;;;9.84;100.00
30724;BME280;17473;52.286;20.930;2024-03-23T08:33:35;99076.91;;;9.75;100.00
30724;BME280;17473;52.286;20.930;2024-03-23T08:36:09;99079.78;;;9.91;100.00
30724;BME280;17473;52.286;20.930;2024-03-23T08:38:38;99078.84;;;10.44;100.00
30724;BME280;17473;52.286;20.930;2024-03-23T08:41:06;99082.53;;;11.37;100.00
30724;BME280;17473;52.286;20.930;2024-03-23T08:43:37;99067.38;;;12.14;100.00
30724;BME280;17473;52.286;20.930;2024-03-23T08:46:13;99073.97;;;13.11;100.00
30724;BME280;17473;52.286;20.930;2024-03-23T08:48:46;99071.34;;;13.28;100.00
30724;BME280;17473;52.286;20.930;2024-03-23T08:51:16;99064.38;;;13.63;100.00
30724;BME280;17473;52.286;20.930;2024-03-23T08:53:43;99063.44;;;13.39;100.00
30724;BME280;17473;52.286;20.930;2024-03-23T08:56:10;99056.31;;;13.13;100.00
30724;BME280;17473;52.286;20.930;2024-03-23T08:58:37;99053.53;;;12.71;100.00
30724;BME280;17473;52.286;20.930;2024-03-23T09:01:08;99042.13;;;12.91;100.00
30724;BME280;17473;52.286;20.930;2024-03-23T09:03:36;99040.38;;;12.93;100.00
30724;BME280;17473;52.286;20.930;2024-03-23T09:06:11;99051.06;;;13.30;100.00
30724;BME280;17473;52.286;20.930;2024-03-23T09:08:37;99039.63;;;13.79;100.00
30724;BME280;17473;52.286;20.930;2024-03-23T09:11:05;99027.13;;;14.32;100.00
30724;BME280;17473;52.286;20.930;2024-03-23T09:13:35;99037.56;;;14.88;99.65
30724;BME280;17473;52.286;20.930;2024-03-23T09:16:02;99028.34;;;15.43;96.13
30724;BME280;17473;52.286;20.930;2024-03-23T09:18:32;99025.81;;;15.26;98.16
30724;BME280;17473;52.286;20.930;2024-03-23T09:20:59;99018.91;;;14.97;96.41
30724;BME280;17473;52.286;20.930;2024-03-23T09:23:25;99017.97;;;15.05;99.41
30724;BME280;17473;52.286;20.930;2024-03-23T09:25:52;99011.81;;;14.93;97.04
30724;BME280;17473;52.286;20.930;2024-03-23T09:28:18;99014.75;;;14.28;98.53
30724;BME280;17473;52.286;20.930;2024-03-23T09:30:44;98999.81;;;13.77;100.00
30724;BME280;17473;52.286;20.930;2024-03-23T09:33:12;98996.28;;;13.38;100.00
30724;BME280;17473;52.286;20.930;2024-03-23T09:35:39;98996.28;;;13.72;100.00
30724;BME280;17473;52.286;20.930;2024-03-23T09:38:06;98995.38;;;13.87;100.00
30724;BME280;17473;52.286;20.930;2024-03-23T09:40:40;98998.00;;;14.06;100.00
30724;BME280;17473;52.286;20.930;2024-03-23T09:43:08;98997.97;;;14.18;100.00
30724;BME280;17473;52.286;20.930;2024-03-23T09:45:39;98986.56;;;13.84;100.00
30724;BME280;17473;52.286;20.930;2024-03-23T09:48:09;98990.03;;;14.06;100.00
30724;BME280;17473;52.286;20.930;2024-03-23T09:50:40;98972.31;;;14.13;100.00
30724;BME280;17473;52.286;20.930;2024-03-23T09:53:13;98972.25;;;14.33;97.42
30724;BME280;17473;52.286;20.930;2024-03-23T09:55:42;98973.88;;;14.65;96.04
30724;BME280;17473;52.286;20.930;2024-03-23T09:58:13;98976.44;;;14.88;94.59
30724;BME280;17473;52.286;20.930;2024-03-23T10:00:39;98958.53;;;15.15;92.10
30724;BME280;17473;52.286;20.930;2024-03-23T10:03:05;98953.53;;;15.84;89.30
30724;BME280;17473;52.286;20.930;2024-03-23T10:05:33;98940.22;;;15.80;89.61
30724;BME280;17473;52.286;20.930;2024-03-23T10:10:44;98923.09;;;16.09;83.55
30724;BME280;17473;52.286;20.930;2024-03-23T10:13:11;98907.19;;;16.70;82.77
30724;BME280;17473;52.286;20.930;2024-03-23T10:15:38;98898.75;;;17.03;81.62
30724;BME280;17473;52.286;20.930;2024-03-23T10:18:21;98900.88;;;17.35;78.06
30724;BME280;17473;52.286;20.930;2024-03-23T10:21:10;98896.16;;;17.50;76.36
30724;BME280;17473;52.286;20.930;2024-03-23T10:23:39;98882.31;;;17.29;78.32
30724;BME280;17473;52.286;20.930;2024-03-23T10:26:23;98874.91;;;17.45;77.21
30724;BME280;17473;52.286;20.930;2024-03-23T10:29:01;98866.50;;;17.67;74.75
30724;BME280;17473;52.286;20.930;2024-03-23T10:31:29;98861.47;;;17.51;75.15
30724;BME280;17473;52.286;20.930;2024-03-23T10:33:55;98862.75;;;17.76;73.88
30724;BME280;17473;52.286;20.930;2024-03-23T10:36:23;98851.56;;;18.44;71.37
30724;BME280;17473;52.286;20.930;2024-03-23T10:38:51;98846.13;;;18.08;71.35
30724;BME280;17473;52.286;20.930;2024-03-23T10:41:18;98846.22;;;18.04;69.12
30724;BME280;17473;52.286;20.930;2024-03-23T10:43:49;98844.31;;;17.15;69.21
30724;BME280;17473;52.286;20.930;2024-03-23T10:46:15;98834.78;;;17.51;69.29
30724;BME280;17473;52.286;20.930;2024-03-23T10:48:42;98833.47;;;18.17;67.29
30724;BME280;17473;52.286;20.930;2024-03-23T10:51:10;98821.03;;;18.94;65.22
30724;BME280;17473;52.286;20.930;2024-03-23T10:53:36;98816.03;;;18.41;65.36
30724;BME280;17473;52.286;20.930;2024-03-23T10:56:04;98800.13;;;17.50;67.04
30724;BME280;17473;52.286;20.930;2024-03-23T10:58:39;98804.19;;;18.13;66.16
30724;BME280;17473;52.286;20.930;2024-03-23T11:01:06;98783.84;;;18.45;64.84
30724;BME280;17473;52.286;20.930;2024-03-23T11:03:37;98776.53;;;18.54;63.29
30724;BME280;17473;52.286;20.930;2024-03-23T11:06:07;98790.78;;;18.54;61.97
30724;BME280;17473;52.286;20.930;2024-03-23T11:08:38;98783.72;;;18.52;62.11
30724;BME280;17473;52.286;20.930;2024-03-23T11:11:28;98792.84;;;18.79;61.93
30724;BME280;17473;52.286;20.930;2024-03-23T11:14:22;98789.56;;;18.68;61.20
30724;BME280;17473;52.286;20.930;2024-03-23T11:17:08;98781.44;;;18.35;61.70
30724;BME280;17473;52.286;20.930;2024-03-23T11:19:39;98782.22;;;18.40;62.12
30724;BME280;17473;52.286;20.930;2024-03-23T11:22:05;98778.09;;;18.25;61.29
30724;BME280;17473;52.286;20.930;2024-03-23T11:24:32;98773.53;;;17.89;62.07
30724;BME280;17473;52.286;20.930;2024-03-23T11:26:58;98768.63;;;18.87;60.55
30724;BME280;17473;52.286;20.930;2024-03-23T11:29:30;98767.09;;;19.11;58.58
30724;BME280;17473;52.286;20.930;2024-03-23T11:31:56;98760.03;;;19.08;58.63
30724;BME280;17473;52.286;20.930;2024-03-23T11:34:22;98754.69;;;19.08;58.06
30724;BME280;17473;52.286;20.930;2024-03-23T11:36:49;98745.53;;;18.83;58.83
30724;BME280;17473;52.286;20.930;2024-03-23T11:39:19;98741.63;;;18.98;59.40
30724;BME280;17473;52.286;20.930;2024-03-23T11:41:51;98745.13;;;18.64;58.51
30724;BME280;17473;52.286;20.930;2024-03-23T11:44:36;98747.22;;;19.21;58.17
30724;BME280;17473;52.286;20.930;2024-03-23T11:47:08;98736.19;;;19.34;57.70
30724;BME280;17473;52.286;20.930;2024-03-23T11:49:36;98730.03;;;18.61;59.30
30724;BME280;17473;52.286;20.930;2024-03-23T11:52:07;98717.25;;;18.38;59.51
30724;BME280;17473;52.286;20.930;2024-03-23T11:54:33;98721.50;;;18.09;59.44
30724;BME280;17473;52.286;20.930;2024-03-23T11:57:03;98706.78;;;17.89;58.70
30724;BME280;17473;52.286;20.930;2024-03-23T11:59:40;98709.09;;;17.65;58.09
30724;BME280;17473;52.286;20.930;2024-03-23T12:02:11;98704.53;;;17.71;58.70
30724;BME280;17473;52.286;20.930;2024-03-23T12:04:41;98695.75;;;17.65;59.30
30724;BME280;17473;52.286;20.930;2024-03-23T12:07:20;98700.69;;;17.43;60.21
30724;BME280;17473;52.286;20.930;2024-03-23T12:10:08;98687.09;;;17.54;60.46
30724;BME280;17473;52.286;20.930;2024-03-23T12:12:34;98680.03;;;17.51;60.89
30724;BME280;17473;52.286;20.930;2024-03-23T12:15:06;98682.28;;;17.72;61.28
30724;BME280;17473;52.286;20.930;2024-03-23T12:17:33;98679.66;;;18.09;59.72
30724;BME280;17473;52.286;20.930;2024-03-23T12:20:01;98672.59;;;17.66;60.29
30724;BME280;17473;52.286;20.930;2024-03-23T12:22:27;98667.81;;;17.82;60.01
30724;BME280;17473;52.286;20.930;2024-03-23T12:24:55;98661.47;;;17.47;60.02
30724;BME280;17473;52.286;20.930;2024-03-23T12:27:22;98668.06;;;17.29;59.70
30724;BME280;17473;52.286;20.930;2024-03-23T12:29:48;98667.31;;;17.22;60.10
30724;BME280;17473;52.286;20.930;2024-03-23T12:32:15;98658.59;;;17.14;60.86
30724;BME280;17473;52.286;20.930;2024-03-23T12:34:42;98652.13;;;16.80;60.97
30724;BME280;17473;52.286;20.930;2024-03-23T12:37:08;98649.91;;;17.04;60.64
30724;BME280;17473;52.286;20.930;2024-03-23T12:39:38;98649.19;;;16.96;60.78
30724;BME280;17473;52.286;20.930;2024-03-23T12:42:05;98649.38;;;16.85;60.36
30724;BME280;17473;52.286;20.930;2024-03-23T12:44:31;98635.16;;;16.84;60.54
30724;BME280;17473;52.286;20.930;2024-03-23T12:46:57;98635.81;;;16.97;59.91
30724;BME280;17473;52.286;20.930;2024-03-23T12:49:23;98623.97;;;16.65;61.71
30724;BME280;17473;52.286;20.930;2024-03-23T12:51:56;98624.03;;;16.62;61.53
30724;BME280;17473;52.286;20.930;2024-03-23T12:54:23;98611.25;;;16.80;60.60
30724;BME280;17473;52.286;20.930;2024-03-23T12:56:50;98615.38;;;16.98;62.14
30724;BME280;17473;52.286;20.930;2024-03-23T12:59:17;98607.44;;;16.95;60.82
30724;BME280;17473;52.286;20.930;2024-03-23T13:01:45;98593.41;;;16.83;60.43
30724;BME280;17473;52.286;20.930;2024-03-23T13:04:11;98601.75;;;16.65;61.30
30724;BME280;17473;52.286;20.930;2024-03-23T13:06:37;98585.19;;;16.50;60.79
30724;BME280;17473;52.286;20.930;2024-03-23T13:09:04;98582.28;;;16.63;62.16
30724;BME280;17473;52.286;20.930;2024-03-23T13:11:31;98574.41;;;16.56;61.77
30724;BME280;17473;52.286;20.930;2024-03-23T13:13:57;98560.56;;;16.37;61.77
30724;BME280;17473;52.286;20.930;2024-03-23T13:16:24;98565.72;;;16.45;62.27
30724;BME280;17473;52.286;20.930;2024-03-23T13:18:50;98562.16;;;16.48;62.26
30724;BME280;17473;52.286;20.930;2024-03-23T13:21:16;98562.25;;;16.41;62.91
30724;BME280;17473;52.286;20.930;2024-03-23T13:23:45;98565.03;;;16.35;62.48
30724;BME280;17473;52.286;20.930;2024-03-23T13:26:13;98552.06;;;16.17;63.42
30724;BME280;17473;52.286;20.930;2024-03-23T13:28:40;98547.72;;;16.13;63.92
30724;BME280;17473;52.286;20.930;2024-03-23T13:31:06;98539.94;;;16.00;64.73
30724;BME280;17473;52.286;20.930;2024-03-23T13:33:34;98528.25;;;16.09;65.14
30724;BME280;17473;52.286;20.930;2024-03-23T13:36:00;98527.44;;;16.04;65.79
30724;BME280;17473;52.286;20.930;2024-03-23T13:38:26;98524.03;;;15.95;66.77
30724;BME280;17473;52.286;20.930;2024-03-23T13:40:57;98515.19;;;15.95;66.69
30724;BME280;17473;52.286;20.930;2024-03-23T13:43:25;98501.97;;;15.90;66.56
30724;BME280;17473;52.286;20.930;2024-03-23T13:45:59;98502.66;;;16.00;66.20
30724;BME280;17473;52.286;20.930;2024-03-23T13:48:27;98496.28;;;16.10;66.53
30724;BME280;17473;52.286;20.930;2024-03-23T13:51:03;98492.63;;;16.15;67.47